sensor_id;sensor_type;location;lat;lon;timestamp;pressure;altitude;pressure_sealevel;temperature;humidity
81379;BME280;70830;42.290;-71.354;2023-11-18T00:01:25;100663.41;;;14.94;68.99
81379;BME280;70830;42.290;-71.354;2023-11-18T00:03:51;100669.94;;;14.89;69.59
81379;BME280;70830;42.290;-71.354;2023-11-18T00:06:17;100683.41;;;14.86;69.56
81379;BME280;70830;42.290;-71.354;2023-11-18T00:08:43;100662.69;;;14.77;70.23
81379;BME280;70830;42.290;-71.354;2023-11-18T00:11:09;100672.38;;;14.78;69.46
81379;BME280;70830;42.290;-71.354;2023-11-18T00:13:36;100659.44;;;14.72;69.70
81379;BME280;70830;42.290;-71.354;2023-11-18T00:16:06;100657.81;;;14.69;69.33
81379;BME280;70830;42.290;-71.354;2023-11-18T00:18:32;100648.44;;;14.63;70.18
81379;BME280;70830;42.290;-71.354;2023-11-18T00:20:59;100662.81;;;14.59;69.91
81379;BME280;70830;42.290;-71.354;2023-11-18T00:23:24;100655.03;;;14.56;70.55
81379;BME280;70830;42.290;-71.354;2023-11-18T00:25:52;100653.41;;;14.54;71.14
81379;BME280;70830;42.290;-71.354;2023-11-18T00:28:18;100665.06;;;14.51;70.45
81379;BME280;70830;42.290;-71.354;2023-11-18T00:30:45;100657.28;;;14.48;70.65
81379;BME280;70830;42.290;-71.354;2023-11-18T00:33:11;100652.16;;;14.45;70.72
81379;BME280;70830;42.290;-71.354;2023-11-18T00:35:37;100644.53;;;14.39;70.70
81379;BME280;70830;42.290;-71.354;2023-11-18T00:38:03;100642.16;;;14.35;70.97
81379;BME280;70830;42.290;-71.354;2023-11-18T00:40:29;100643.94;;;14.34;71.10
81379;BME280;70830;42.290;-71.354;2023-11-18T00:42:58;100635.88;;;14.36;70.68
81379;BME280;70830;42.290;-71.354;2023-11-18T00:45:24;100627.38;;;14.31;70.70
81379;BME280;70830;42.290;-71.354;2023-11-18T00:47:50;100631.72;;;14.32;71.67
81379;BME280;70830;42.290;-71.354;2023-11-18T00:50:16;100630.94;;;14.30;71.17
81379;BME280;70830;42.290;-71.354;2023-11-18T00:52:42;100627.59;;;14.26;71.07
81379;BME280;70830;42.290;-71.354;2023-11-18T00:55:09;100625.78;;;14.27;70.91
81379;BME280;70830;42.290;-71.354;2023-11-18T00:57:36;100618.88;;;14.24;70.97
81379;BME280;70830;42.290;-71.354;2023-11-18T01:00:06;100610.22;;;14.21;72.32
81379;BME280;70830;42.290;-71.354;2023-11-18T01:02:33;100595.34;;;14.18;71.54
81379;BME280;70830;42.290;-71.354;2023-11-18T01:04:58;100599.81;;;14.18;71.39
81379;BME280;70830;42.290;-71.354;2023-11-18T01:07:24;100597.06;;;14.19;71.66
81379;BME280;70830;42.290;-71.354;2023-11-18T01:09:51;100600.63;;;14.18;71.94
81379;BME280;70830;42.290;-71.354;2023-11-18T01:12:17;100591.06;;;14.16;71.06
81379;BME280;70830;42.290;-71.354;2023-11-18T01:14:43;100591.00;;;14.17;71.61
81379;BME280;70830;42.290;-71.354;2023-11-18T01:17:09;100591.84;;;14.18;72.28
81379;BME280;70830;42.290;-71.354;2023-11-18T01:19:35;100596.47;;;14.14;72.35
81379;BME280;70830;42.290;-71.354;2023-11-18T01:22:04;100601.66;;;14.16;71.99
81379;BME280;70830;42.290;-71.354;2023-11-18T01:24:34;100587.84;;;14.11;72.18
81379;BME280;70830;42.290;-71.354;2023-11-18T01:27:02;100589.47;;;14.13;72.46
81379;BME280;70830;42.290;-71.354;2023-11-18T01:29:28;100592.28;;;14.10;72.19
81379;BME280;70830;42.290;-71.354;2023-11-18T01:31:54;100584.59;;;14.06;72.24
81379;BME280;70830;42.290;-71.354;2023-11-18T01:34:22;100591.56;;;14.07;72.88
81379;BME280;70830;42.290;-71.354;2023-11-18T01:36:49;100597.84;;;14.06;72.38
81379;BME280;70830;42.290;-71.354;2023-11-18T01:39:16;100591.78;;;14.04;72.66
81379;BME280;70830;42.290;-71.354;2023-11-18T01:41:44;100581.25;;;14.02;72.64
81379;BME280;70830;42.290;-71.354;2023-11-18T01:44:10;100577.00;;;14.00;72.49
81379;BME280;70830;42.290;-71.354;2023-11-18T01:46:40;100567.56;;;13.94;72.77
81379;BME280;70830;42.290;-71.354;2023-11-18T01:49:11;100563.22;;;13.93;73.48
81379;BME280;70830;42.290;-71.354;2023-11-18T01:51:41;100565.94;;;13.91;73.36
81379;BME280;70830;42.290;-71.354;2023-11-18T01:54:09;100555.34;;;13.91;73.89
81379;BME280;70830;42.290;-71.354;2023-11-18T01:56:47;100553.72;;;13.89;73.65
81379;BME280;70830;42.290;-71.354;2023-11-18T01:59:14;100552.88;;;13.88;73.35
81379;BME280;70830;42.290;-71.354;2023-11-18T02:01:48;100552.19;;;13.85;73.39
81379;BME280;70830;42.290;-71.354;2023-11-18T02:04:15;100544.22;;;13.85;73.17
81379;BME280;70830;42.290;-71.354;2023-11-18T02:06:45;100542.53;;;13.84;74.24
81379;BME280;70830;42.290;-71.354;2023-11-18T02:09:15;100545.00;;;13.87;73.46
81379;BME280;70830;42.290;-71.354;2023-11-18T02:14:31;100523.72;;;13.88;74.14
81379;BME280;70830;42.290;-71.354;2023-11-18T02:17:02;100528.00;;;13.91;74.37
81379;BME280;70830;42.290;-71.354;2023-11-18T02:19:29;100512.38;;;13.86;73.91
81379;BME280;70830;42.290;-71.354;2023-11-18T02:21:56;100518.94;;;13.95;73.92
81379;BME280;70830;42.290;-71.354;2023-11-18T02:24:29;100522.25;;;13.98;73.84
81379;BME280;70830;42.290;-71.354;2023-11-18T02:27:15;100521.31;;;14.00;74.01
81379;BME280;70830;42.290;-71.354;2023-11-18T02:29:45;100509.84;;;13.99;74.39
81379;BME280;70830;42.290;-71.354;2023-11-18T02:32:20;100518.56;;;14.01;73.79
81379;BME280;70830;42.290;-71.354;2023-11-18T02:35:14;100516.00;;;14.00;74.19
81379;BME280;70830;42.290;-71.354;2023-11-18T02:37:45;100513.28;;;14.01;73.71
81379;BME280;70830;42.290;-71.354;2023-11-18T02:40:27;100516.78;;;14.02;74.18
81379;BME280;70830;42.290;-71.354;2023-11-18T02:42:58;100508.72;;;14.03;73.47
81379;BME280;70830;42.290;-71.354;2023-11-18T02:45:26;100508.72;;;14.03;73.77
81379;BME280;70830;42.290;-71.354;2023-11-18T02:47:53;100503.44;;;14.03;74.33
81379;BME280;70830;42.290;-71.354;2023-11-18T02:50:26;100500.78;;;14.03;73.60
81379;BME280;70830;42.290;-71.354;2023-11-18T02:52:53;100498.13;;;14.03;73.84
81379;BME280;70830;42.290;-71.354;2023-11-18T02:55:19;100497.25;;;14.03;74.16
81379;BME280;70830;42.290;-71.354;2023-11-18T02:57:50;100491.41;;;13.98;74.34
81379;BME280;70830;42.290;-71.354;2023-11-18T03:00:17;100489.56;;;13.98;73.72
81379;BME280;70830;42.290;-71.354;2023-11-18T03:02:53;100478.41;;;13.93;74.53
81379;BME280;70830;42.290;-71.354;2023-11-18T03:05:22;100482.09;;;13.90;74.53
81379;BME280;70830;42.290;-71.354;2023-11-18T03:07:48;100482.34;;;13.86;74.68
81379;BME280;70830;42.290;-71.354;2023-11-18T03:10:22;100485.06;;;13.84;74.23
81379;BME280;70830;42.290;-71.354;2023-11-18T03:12:49;100478.19;;;13.82;74.91
81379;BME280;70830;42.290;-71.354;2023-11-18T03:15:15;100473.03;;;13.79;75.17
81379;BME280;70830;42.290;-71.354;2023-11-18T03:17:48;100480.22;;;13.77;74.60
81379;BME280;70830;42.290;-71.354;2023-11-18T03:20:20;100471.50;;;13.75;75.10
81379;BME280;70830;42.290;-71.354;2023-11-18T03:22:52;100476.06;;;13.73;74.64
81379;BME280;70830;42.290;-71.354;2023-11-18T03:25:18;100466.47;;;13.70;74.83
81379;BME280;70830;42.290;-71.354;2023-11-18T03:27:48;100467.50;;;13.68;75.62
81379;BME280;70830;42.290;-71.354;2023-11-18T03:30:14;100465.78;;;13.67;75.71
81379;BME280;70830;42.290;-71.354;2023-11-18T03:32:40;100460.69;;;13.64;74.90
81379;BME280;70830;42.290;-71.354;2023-11-18T03:35:07;100461.59;;;13.63;75.83
81379;BME280;70830;42.290;-71.354;2023-11-18T03:37:40;100457.44;;;13.59;75.28
81379;BME280;70830;42.290;-71.354;2023-11-18T03:40:12;100438.22;;;13.55;75.13
81379;BME280;70830;42.290;-71.354;2023-11-18T03:42:39;100446.44;;;13.51;75.79
81379;BME280;70830;42.290;-71.354;2023-11-18T03:45:05;100443.84;;;13.49;75.77
81379;BME280;70830;42.290;-71.354;2023-11-18T03:47:32;100438.75;;;13.46;75.76
81379;BME280;70830;42.290;-71.354;2023-11-18T03:49:59;100437.03;;;13.45;76.17
81379;BME280;70830;42.290;-71.354;2023-11-18T03:52:25;100432.06;;;13.39;75.71
81379;BME280;70830;42.290;-71.354;2023-11-18T03:54:53;100441.91;;;13.37;76.41
81379;BME280;70830;42.290;-71.354;2023-11-18T03:57:21;100434.56;;;13.27;75.79
81379;BME280;70830;42.290;-71.354;2023-11-18T03:59:47;100441.72;;;13.24;75.59
81379;BME280;70830;42.290;-71.354;2023-11-18T04:02:12;100438.75;;;13.15;76.43
81379;BME280;70830;42.290;-71.354;2023-11-18T04:04:38;100445.06;;;13.12;76.33
81379;BME280;70830;42.290;-71.354;2023-11-18T04:07:04;100441.81;;;13.07;76.26
81379;BME280;70830;42.290;-71.354;2023-11-18T04:09:32;100432.31;;;13.03;76.81
81379;BME280;70830;42.290;-71.354;2023-11-18T04:11:58;100432.66;;;12.97;76.50
81379;BME280;70830;42.290;-71.354;2023-11-18T04:14:24;100427.59;;;12.93;76.69
81379;BME280;70830;42.290;-71.354;2023-11-18T04:16:51;100428.63;;;12.90;77.08
81379;BME280;70830;42.290;-71.354;2023-11-18T04:19:18;100424.50;;;12.85;77.32
81379;BME280;70830;42.290;-71.354;2023-11-18T04:21:44;100423.81;;;12.81;76.97
81379;BME280;70830;42.290;-71.354;2023-11-18T04:24:13;100414.25;;;12.79;77.76
81379;BME280;70830;42.290;-71.354;2023-11-18T04:26:41;100410.09;;;12.75;77.66
81379;BME280;70830;42.290;-71.354;2023-11-18T04:29:06;100415.63;;;12.70;77.79
81379;BME280;70830;42.290;-71.354;2023-11-18T04:31:33;100405.19;;;12.67;78.31
81379;BME280;70830;42.290;-71.354;2023-11-18T04:34:00;100400.09;;;12.64;77.61
81379;BME280;70830;42.290;-71.354;2023-11-18T04:36:26;100391.53;;;12.59;78.50
81379;BME280;70830;42.290;-71.354;2023-11-18T04:38:52;100388.97;;;12.58;78.37
81379;BME280;70830;42.290;-71.354;2023-11-18T04:41:18;100381.31;;;12.53;77.78
81379;BME280;70830;42.290;-71.354;2023-11-18T04:43:44;100373.66;;;12.47;78.48
81379;BME280;70830;42.290;-71.354;2023-11-18T04:46:11;100376.41;;;12.45;78.71
81379;BME280;70830;42.290;-71.354;2023-11-18T04:48:37;100374.63;;;12.46;78.10
81379;BME280;70830;42.290;-71.354;2023-11-18T04:51:03;100367.69;;;12.43;78.93
81379;BME280;70830;42.290;-71.354;2023-11-18T04:53:29;100362.56;;;12.40;78.98
81379;BME280;70830;42.290;-71.354;2023-11-18T04:55:55;100357.38;;;12.39;79.05
81379;BME280;70830;42.290;-71.354;2023-11-18T04:58:21;100360.13;;;12.37;78.69
81379;BME280;70830;42.290;-71.354;2023-11-18T05:00:47;100355.91;;;12.33;79.41
81379;BME280;70830;42.290;-71.354;2023-11-18T05:03:13;100352.47;;;12.31;79.51
81379;BME280;70830;42.290;-71.354;2023-11-18T05:05:40;100346.38;;;12.31;79.85
81379;BME280;70830;42.290;-71.354;2023-11-18T05:08:07;100354.31;;;12.31;79.30
81379;BME280;70830;42.290;-71.354;2023-11-18T05:10:34;100355.13;;;12.31;79.50
81379;BME280;70830;42.290;-71.354;2023-11-18T05:13:02;100349.84;;;12.31;79.81
81379;BME280;70830;42.290;-71.354;2023-11-18T05:15:28;100335.00;;;12.29;80.02
81379;BME280;70830;42.290;-71.354;2023-11-18T05:17:55;100344.41;;;12.34;79.76
81379;BME280;70830;42.290;-71.354;2023-11-18T05:20:21;100336.31;;;12.37;80.23
81379;BME280;70830;42.290;-71.354;2023-11-18T05:22:48;100334.34;;;12.41;80.51
81379;BME280;70830;42.290;-71.354;2023-11-18T05:25:14;100327.19;;;12.43;80.88
81379;BME280;70830;42.290;-71.354;2023-11-18T05:27:40;100331.31;;;12.48;80.74
81379;BME280;70830;42.290;-71.354;2023-11-18T05:30:07;100332.75;;;12.54;80.93
81379;BME280;70830;42.290;-71.354;2023-11-18T05:32:34;100327.09;;;12.60;81.50
81379;BME280;70830;42.290;-71.354;2023-11-18T05:35:00;100310.22;;;12.63;80.96
81379;BME280;70830;42.290;-71.354;2023-11-18T05:37:26;100300.50;;;12.63;81.58
81379;BME280;70830;42.290;-71.354;2023-11-18T05:39:55;100302.03;;;12.67;80.89
81379;BME280;70830;42.290;-71.354;2023-11-18T05:42:32;100298.28;;;12.71;80.85
81379;BME280;70830;42.290;-71.354;2023-11-18T05:44:59;100288.66;;;12.70;81.18
81379;BME280;70830;42.290;-71.354;2023-11-18T05:47:25;100287.63;;;12.73;81.47
81379;BME280;70830;42.290;-71.354;2023-11-18T05:49:52;100285.75;;;12.75;81.22
81379;BME280;70830;42.290;-71.354;2023-11-18T05:52:19;100279.69;;;12.73;81.17
81379;BME280;70830;42.290;-71.354;2023-11-18T05:54:46;100283.00;;;12.76;81.25
81379;BME280;70830;42.290;-71.354;2023-11-18T05:57:18;100286.41;;;12.78;80.86
81379;BME280;70830;42.290;-71.354;2023-11-18T05:59:45;100277.56;;;12.79;81.93
81379;BME280;70830;42.290;-71.354;2023-11-18T06:02:14;100279.19;;;12.82;81.66
81379;BME280;70830;42.290;-71.354;2023-11-18T06:04:46;100277.44;;;12.81;81.16
81379;BME280;70830;42.290;-71.354;2023-11-18T06:07:13;100266.00;;;12.80;80.84
81379;BME280;70830;42.290;-71.354;2023-11-18T06:09:41;100258.94;;;12.81;81.37
81379;BME280;70830;42.290;-71.354;2023-11-18T06:12:08;100249.22;;;12.81;81.24
81379;BME280;70830;42.290;-71.354;2023-11-18T06:14:36;100259.91;;;12.80;81.45
81379;BME280;70830;42.290;-71.354;2023-11-18T06:17:04;100252.97;;;12.77;81.21
81379;BME280;70830;42.290;-71.354;2023-11-18T06:19:33;100251.09;;;12.79;81.39
81379;BME280;70830;42.290;-71.354;2023-11-18T06:21:59;100258.06;;;12.80;82.21
81379;BME280;70830;42.290;-71.354;2023-11-18T06:24:25;100241.28;;;12.81;81.72
81379;BME280;70830;42.290;-71.354;2023-11-18T06:26:51;100242.13;;;12.82;82.08
81379;BME280;70830;42.290;-71.354;2023-11-18T06:29:17;100235.88;;;12.83;82.19
81379;BME280;70830;42.290;-71.354;2023-11-18T06:31:44;100236.75;;;12.83;82.46
81379;BME280;70830;42.290;-71.354;2023-11-18T06:34:10;100230.59;;;12.83;82.25
81379;BME280;70830;42.290;-71.354;2023-11-18T06:36:36;100233.19;;;12.84;82.04
81379;BME280;70830;42.290;-71.354;2023-11-18T06:39:02;100226.66;;;12.90;81.91
81379;BME280;70830;42.290;-71.354;2023-11-18T06:41:30;100227.31;;;12.93;81.93
81379;BME280;70830;42.290;-71.354;2023-11-18T06:44:00;100223.66;;;12.96;82.05
81379;BME280;70830;42.290;-71.354;2023-11-18T06:46:34;100225.09;;;13.01;81.32
81379;BME280;70830;42.290;-71.354;2023-11-18T06:49:03;100228.50;;;13.03;81.36
81379;BME280;70830;42.290;-71.354;2023-11-18T06:51:41;100227.50;;;13.06;81.12
81379;BME280;70830;42.290;-71.354;2023-11-18T06:54:07;100219.38;;;13.09;81.11
81379;BME280;70830;42.290;-71.354;2023-11-18T06:56:43;100202.47;;;13.11;80.99
81379;BME280;70830;42.290;-71.354;2023-11-18T06:59:10;100208.53;;;13.13;81.44
81379;BME280;70830;42.290;-71.354;2023-11-18T07:01:38;100209.22;;;13.17;82.03
81379;BME280;70830;42.290;-71.354;2023-11-18T07:04:06;100203.81;;;13.18;81.33
81379;BME280;70830;42.290;-71.354;2023-11-18T07:06:35;100208.19;;;13.19;81.66
81379;BME280;70830;42.290;-71.354;2023-11-18T07:09:08;100205.44;;;13.21;81.13
81379;BME280;70830;42.290;-71.354;2023-11-18T07:11:47;100214.72;;;13.28;82.02
81379;BME280;70830;42.290;-71.354;2023-11-18T07:14:13;100211.03;;;13.31;81.11
81379;BME280;70830;42.290;-71.354;2023-11-18T07:16:40;100198.63;;;13.31;81.22
81379;BME280;70830;42.290;-71.354;2023-11-18T07:19:10;100194.94;;;13.34;80.78
81379;BME280;70830;42.290;-71.354;2023-11-18T07:21:43;100187.69;;;13.37;80.99
81379;BME280;70830;42.290;-71.354;2023-11-18T07:24:09;100177.16;;;13.36;80.60
81379;BME280;70830;42.290;-71.354;2023-11-18T07:26:35;100180.41;;;13.41;81.27
81379;BME280;70830;42.290;-71.354;2023-11-18T07:29:01;100180.41;;;13.41;81.09
81379;BME280;70830;42.290;-71.354;2023-11-18T07:31:27;100171.44;;;13.43;81.10
81379;BME280;70830;42.290;-71.354;2023-11-18T07:33:54;100160.66;;;13.46;80.92
81379;BME280;70830;42.290;-71.354;2023-11-18T07:36:21;100174.72;;;13.47;81.52
81379;BME280;70830;42.290;-71.354;2023-11-18T07:38:47;100179.84;;;13.50;80.18
81379;BME280;70830;42.290;-71.354;2023-11-18T07:41:15;100161.41;;;13.48;80.07
81379;BME280;70830;42.290;-71.354;2023-11-18T07:43:50;100165.66;;;13.51;79.92
81379;BME280;70830;42.290;-71.354;2023-11-18T07:46:17;100163.38;;;13.45;79.97
81379;BME280;70830;42.290;-71.354;2023-11-18T07:48:42;100159.63;;;13.49;80.67
81379;BME280;70830;42.290;-71.354;2023-11-18T07:51:08;100151.69;;;13.49;80.09
81379;BME280;70830;42.290;-71.354;2023-11-18T07:53:34;100138.31;;;13.50;80.16
81379;BME280;70830;42.290;-71.354;2023-11-18T07:56:02;100139.19;;;13.51;79.73
81379;BME280;70830;42.290;-71.354;2023-11-18T07:58:27;100129.53;;;13.50;80.09
81379;BME280;70830;42.290;-71.354;2023-11-18T08:00:53;100128.78;;;13.48;80.24
81379;BME280;70830;42.290;-71.354;2023-11-18T08:03:20;100137.56;;;13.48;79.66
81379;BME280;70830;42.290;-71.354;2023-11-18T08:05:46;100146.38;;;13.49;80.59
81379;BME280;70830;42.290;-71.354;2023-11-18T08:08:14;100132.34;;;13.47;79.64
81379;BME280;70830;42.290;-71.354;2023-11-18T08:10:44;100120.66;;;13.51;80.36
81379;BME280;70830;42.290;-71.354;2023-11-18T08:13:11;100110.88;;;13.51;80.00
81379;BME280;70830;42.290;-71.354;2023-11-18T08:15:39;100123.09;;;13.54;80.04
81379;BME280;70830;42.290;-71.354;2023-11-18T08:18:06;100127.34;;;13.56;79.44
81379;BME280;70830;42.290;-71.354;2023-11-18T08:20:32;100136.25;;;13.55;80.28
81379;BME280;70830;42.290;-71.354;2023-11-18T08:22:58;100123.94;;;13.54;80.38
81379;BME280;70830;42.290;-71.354;2023-11-18T08:25:24;100126.47;;;13.56;80.05
81379;BME280;70830;42.290;-71.354;2023-11-18T08:27:51;100110.59;;;13.56;79.59
81379;BME280;70830;42.290;-71.354;2023-11-18T08:30:17;100107.00;;;13.57;80.06
81379;BME280;70830;42.290;-71.354;2023-11-18T08:32:45;100111.44;;;13.56;79.79
81379;BME280;70830;42.290;-71.354;2023-11-18T08:35:12;100113.16;;;13.57;80.77
81379;BME280;70830;42.290;-71.354;2023-11-18T08:37:40;100114.09;;;13.56;80.55
81379;BME280;70830;42.290;-71.354;2023-11-18T08:40:07;100105.13;;;13.59;80.14
81379;BME280;70830;42.290;-71.354;2023-11-18T08:42:44;100104.19;;;13.60;79.99
81379;BME280;70830;42.290;-71.354;2023-11-18T08:45:27;100101.31;;;13.63;80.04
81379;BME280;70830;42.290;-71.354;2023-11-18T08:47:55;100103.03;;;13.64;79.94
81379;BME280;70830;42.290;-71.354;2023-11-18T08:50:22;100097.75;;;13.64;79.88
81379;BME280;70830;42.290;-71.354;2023-11-18T08:52:52;100089.50;;;13.68;80.42
81379;BME280;70830;42.290;-71.354;2023-11-18T08:55:28;100080.69;;;13.68;80.18
81379;BME280;70830;42.290;-71.354;2023-11-18T08:58:13;100070.66;;;13.73;80.62
81379;BME280;70830;42.290;-71.354;2023-11-18T09:00:51;100066.41;;;13.70;80.33
81379;BME280;70830;42.290;-71.354;2023-11-18T09:03:20;100055.81;;;13.70;80.35
81379;BME280;70830;42.290;-71.354;2023-11-18T09:06:04;100043.31;;;13.72;80.72
81379;BME280;70830;42.290;-71.354;2023-11-18T09:08:35;100048.63;;;13.72;80.62
81379;BME280;70830;42.290;-71.354;2023-11-18T09:11:04;100044.19;;;13.73;80.43
81379;BME280;70830;42.290;-71.354;2023-11-18T09:13:33;100045.09;;;13.72;80.24
81379;BME280;70830;42.290;-71.354;2023-11-18T09:16:06;100035.47;;;13.71;79.62
81379;BME280;70830;42.290;-71.354;2023-11-18T09:18:36;100049.47;;;13.73;79.96
81379;BME280;70830;42.290;-71.354;2023-11-18T09:21:05;100033.75;;;13.70;80.45
81379;BME280;70830;42.290;-71.354;2023-11-18T09:23:33;100033.75;;;13.70;79.47
81379;BME280;70830;42.290;-71.354;2023-11-18T09:26:03;100047.56;;;13.75;79.48
81379;BME280;70830;42.290;-71.354;2023-11-18T09:28:34;100048.50;;;13.74;79.63
81379;BME280;70830;42.290;-71.354;2023-11-18T09:31:04;100049.47;;;13.73;80.23
81379;BME280;70830;42.290;-71.354;2023-11-18T09:33:32;100050.22;;;13.75;80.31
81379;BME280;70830;42.290;-71.354;2023-11-18T09:36:03;100045.78;;;13.75;80.52
81379;BME280;70830;42.290;-71.354;2023-11-18T09:38:34;100042.28;;;13.75;80.92
81379;BME280;70830;42.290;-71.354;2023-11-18T09:41:04;100043.78;;;13.79;79.96
81379;BME280;70830;42.290;-71.354;2023-11-18T09:43:44;100034.84;;;13.80;79.84
81379;BME280;70830;42.290;-71.354;2023-11-18T09:46:12;100037.50;;;13.80;80.18
81379;BME280;70830;42.290;-71.354;2023-11-18T09:48:43;100041.88;;;13.81;80.86
81379;BME280;70830;42.290;-71.354;2023-11-18T09:51:15;100037.50;;;13.80;79.97
81379;BME280;70830;42.290;-71.354;2023-11-18T09:53:52;100035.72;;;13.80;80.33
81379;BME280;70830;42.290;-71.354;2023-11-18T09:59:25;100038.38;;;13.80;80.26
81379;BME280;70830;42.290;-71.354;2023-11-18T10:01:57;100034.09;;;13.78;80.86
81379;BME280;70830;42.290;-71.354;2023-11-18T10:04:24;100021.72;;;13.78;80.65
81379;BME280;70830;42.290;-71.354;2023-11-18T10:06:54;100019.53;;;13.85;80.63
81379;BME280;70830;42.290;-71.354;2023-11-18T10:09:23;100010.06;;;13.81;80.41
81379;BME280;70830;42.290;-71.354;2023-11-18T10:12:03;100017.72;;;13.85;80.70
81379;BME280;70830;42.290;-71.354;2023-11-18T10:14:35;100012.53;;;13.84;80.68
81379;BME280;70830;42.290;-71.354;2023-11-18T10:17:05;100003.53;;;13.86;80.69
81379;BME280;70830;42.290;-71.354;2023-11-18T10:19:53;99995.59;;;13.86;80.29
81379;BME280;70830;42.290;-71.354;2023-11-18T10:22:24;99998.31;;;13.85;81.06
81379;BME280;70830;42.290;-71.354;2023-11-18T10:24:50;100001.72;;;13.87;80.53
81379;BME280;70830;42.290;-71.354;2023-11-18T10:27:24;100000.78;;;13.88;80.61
81379;BME280;70830;42.290;-71.354;2023-11-18T10:30:01;99991.88;;;13.89;80.37
81379;BME280;70830;42.290;-71.354;2023-11-18T10:32:28;99985.81;;;13.87;79.75
81379;BME280;70830;42.290;-71.354;2023-11-18T10:34:56;99990.28;;;13.86;80.84
81379;BME280;70830;42.290;-71.354;2023-11-18T10:37:22;99987.72;;;13.85;80.33
81379;BME280;70830;42.290;-71.354;2023-11-18T10:39:48;99996.41;;;13.87;80.63
81379;BME280;70830;42.290;-71.354;2023-11-18T10:42:18;100007.03;;;13.87;80.53
81379;BME280;70830;42.290;-71.354;2023-11-18T10:44:58;99999.19;;;13.85;80.28
81379;BME280;70830;42.290;-71.354;2023-11-18T10:47:25;99986.13;;;13.82;81.10
81379;BME280;70830;42.290;-71.354;2023-11-18T10:49:54;99989.63;;;13.83;80.69
81379;BME280;70830;42.290;-71.354;2023-11-18T10:52:27;99982.53;;;13.83;80.53
81379;BME280;70830;42.290;-71.354;2023-11-18T10:55:00;99971.94;;;13.83;81.25
81379;BME280;70830;42.290;-71.354;2023-11-18T10:57:33;99981.56;;;13.84;80.82
81379;BME280;70830;42.290;-71.354;2023-11-18T11:00:02;99991.97;;;13.87;81.14
81379;BME280;70830;42.290;-71.354;2023-11-18T11:02:30;99993.69;;;13.88;80.33
81379;BME280;70830;42.290;-71.354;2023-11-18T11:05:01;99980.53;;;13.87;80.77
81379;BME280;70830;42.290;-71.354;2023-11-18T11:07:28;99981.19;;;13.90;80.54
81379;BME280;70830;42.290;-71.354;2023-11-18T11:09:55;99969.72;;;13.90;81.41
81379;BME280;70830;42.290;-71.354;2023-11-18T11:12:23;99967.06;;;13.90;80.62
81379;BME280;70830;42.290;-71.354;2023-11-18T11:14:59;99969.16;;;13.85;81.16
81379;BME280;70830;42.290;-71.354;2023-11-18T11:17:29;99969.16;;;13.85;80.98
81379;BME280;70830;42.290;-71.354;2023-11-18T11:20:08;99966.75;;;13.82;81.48
81379;BME280;70830;42.290;-71.354;2023-11-18T11:23:08;99960.59;;;13.81;81.27
81379;BME280;70830;42.290;-71.354;2023-11-18T11:25:49;99944.88;;;13.78;81.47
81379;BME280;70830;42.290;-71.354;2023-11-18T11:28:23;99944.03;;;13.78;81.27
81379;BME280;70830;42.290;-71.354;2023-11-18T11:35:48;99951.63;;;13.70;81.83
81379;BME280;70830;42.290;-71.354;2023-11-18T11:38:17;99960.44;;;13.70;82.08
81379;BME280;70830;42.290;-71.354;2023-11-18T11:40:45;99964.78;;;13.71;82.23
81379;BME280;70830;42.290;-71.354;2023-11-18T11:43:13;99956.00;;;13.71;81.71
81379;BME280;70830;42.290;-71.354;2023-11-18T11:45:48;99965.75;;;13.70;82.20
81379;BME280;70830;42.290;-71.354;2023-11-18T11:48:17;99957.88;;;13.69;82.25
81379;BME280;70830;42.290;-71.354;2023-11-18T11:51:52;99969.03;;;13.74;82.28
81379;BME280;70830;42.290;-71.354;2023-11-18T11:54:11;99962.78;;;13.75;82.76
81379;BME280;70830;42.290;-71.354;2023-11-18T11:56:42;99962.78;;;13.75;82.45
81379;BME280;70830;42.290;-71.354;2023-11-18T11:59:09;99955.78;;;13.74;82.26
81379;BME280;70830;42.290;-71.354;2023-11-18T12:01:38;99960.16;;;13.75;81.76
81379;BME280;70830;42.290;-71.354;2023-11-18T12:04:05;99955.69;;;13.75;81.87
81379;BME280;70830;42.290;-71.354;2023-11-18T12:06:42;99966.31;;;13.75;81.77
81379;BME280;70830;42.290;-71.354;2023-11-18T12:09:10;99975.19;;;13.74;81.99
81379;BME280;70830;42.290;-71.354;2023-11-18T12:11:37;99984.84;;;13.75;81.40
81379;BME280;70830;42.290;-71.354;2023-11-18T12:14:11;99990.34;;;13.72;81.85
81379;BME280;70830;42.290;-71.354;2023-11-18T12:17:04;99985.66;;;13.76;82.35
81379;BME280;70830;42.290;-71.354;2023-11-18T12:19:47;99992.78;;;13.75;82.00
81379;BME280;70830;42.290;-71.354;2023-11-18T12:27:41;100010.06;;;13.81;81.76
81379;BME280;70830;42.290;-71.354;2023-11-18T12:33:03;100004.88;;;13.79;82.67
81379;BME280;70830;42.290;-71.354;2023-11-18T12:41:37;100008.28;;;13.81;82.24
81379;BME280;70830;42.290;-71.354;2023-11-18T12:46:54;100006.78;;;13.77;82.30
81379;BME280;70830;42.290;-71.354;2023-11-18T12:49:24;100004.97;;;13.78;81.94
81379;BME280;70830;42.290;-71.354;2023-11-18T12:51:54;100005.94;;;13.77;82.43
81379;BME280;70830;42.290;-71.354;2023-11-18T12:54:22;100006.69;;;13.79;82.23
81379;BME280;70830;42.290;-71.354;2023-11-18T12:56:51;100006.50;;;13.82;82.51
81379;BME280;70830;42.290;-71.354;2023-11-18T12:59:20;100001.19;;;13.82;81.86
81379;BME280;70830;42.290;-71.354;2023-11-18T13:01:50;100010.63;;;13.86;82.42
81379;BME280;70830;42.290;-71.354;2023-11-18T13:04:30;100005.34;;;13.86;81.99
81379;BME280;70830;42.290;-71.354;2023-11-18T13:06:58;100000.03;;;13.86;82.41
81379;BME280;70830;42.290;-71.354;2023-11-18T13:09:26;100009.47;;;13.90;82.40